createdAt,value
2019-03-09T00:03:10.433Z," 8.58"
2019-03-09T00:08:06.580Z," 8.60"
2019-03-09T00:13:02.384Z," 8.52"
2019-03-09T00:17:58.039Z," 8.45"
2019-03-09T00:22:54.099Z," 8.53"
2019-03-09T00:27:49.489Z," 8.36"
2019-03-09T00:32:45.330Z," 8.41"
2019-03-09T00:37:41.072Z," 8.27"
2019-03-09T00:42:36.817Z," 8.26"
2019-03-09T00:47:32.577Z," 8.28"
2019-03-09T00:52:28.119Z," 8.20"
2019-03-09T00:57:23.651Z," 8.10"
2019-03-09T01:02:19.377Z," 8.28"
2019-03-09T01:07:15.358Z," 8.20"
2019-03-09T01:12:11.000Z," 8.01"
2019-03-09T01:17:07.608Z," 8.00"
2019-03-09T01:22:03.863Z," 8.00"
2019-03-09T01:27:00.250Z," 8.00"
2019-03-09T01:31:55.592Z," 7.88"
2019-03-09T01:36:50.997Z," 7.83"
2019-03-09T01:41:46.702Z," 8.00"
2019-03-09T01:46:43.677Z," 7.85"
2019-03-09T01:51:39.621Z," 7.88"
2019-03-09T01:56:35.099Z," 7.95"
2019-03-09T02:01:30.917Z," 7.90"
2019-03-09T02:06:26.893Z," 7.94"
2019-03-09T02:11:22.688Z," 7.87"
2019-03-09T02:16:19.249Z," 7.83"
2019-03-09T02:21:15.708Z," 7.76"
2019-03-09T02:26:11.141Z," 7.79"
2019-03-09T02:31:06.718Z," 7.73"
2019-03-09T02:36:03.525Z," 7.79"
2019-03-09T02:40:59.393Z," 7.76"
2019-03-09T02:45:55.119Z," 7.76"
2019-03-09T02:50:50.814Z," 7.85"
2019-03-09T02:55:46.723Z," 7.83"
2019-03-09T03:00:42.386Z," 7.87"
2019-03-09T03:05:40.037Z," 7.87"
2019-03-09T03:10:35.064Z," 7.85"
2019-03-09T03:15:31.809Z," 7.95"
2019-03-09T03:20:27.064Z," 8.05"
2019-03-09T03:25:22.861Z," 8.10"
2019-03-09T03:30:18.641Z," 8.18"
2019-03-09T03:35:14.327Z," 8.20"
2019-03-09T03:40:10.187Z," 8.27"
2019-03-09T03:45:06.029Z," 8.27"
2019-03-09T03:50:01.942Z," 8.31"
2019-03-09T03:54:58.749Z," 8.31"
2019-03-09T03:59:53.974Z," 8.33"
2019-03-09T04:04:51.808Z," 8.44"
2019-03-09T04:09:47.331Z," 8.46"
2019-03-09T04:14:43.290Z," 8.56"
2019-03-09T04:19:39.724Z," 8.64"
2019-03-09T04:24:35.357Z," 8.64"
2019-03-09T04:29:30.900Z," 8.73"
2019-03-09T04:34:26.667Z," 8.82"
2019-03-09T04:39:22.444Z," 8.81"
2019-03-09T04:44:18.197Z," 8.76"
2019-03-09T04:49:15.034Z," 8.84"
2019-03-09T04:54:11.521Z," 8.79"
2019-03-09T04:59:07.662Z," 8.82"
2019-03-09T05:04:03.283Z," 8.81"
2019-03-09T05:08:59.526Z," 8.89"
2019-03-09T05:13:55.162Z," 8.89"
2019-03-09T05:18:51.167Z," 8.95"
2019-03-09T05:23:47.958Z," 8.92"
2019-03-09T05:28:44.713Z," 8.88"
2019-03-09T05:33:41.460Z," 8.95"
2019-03-09T05:38:36.470Z," 8.95"
2019-03-09T05:43:32.192Z," 8.91"
2019-03-09T05:48:29.190Z," 8.82"
2019-03-09T05:53:25.609Z," 8.74"
2019-03-09T05:58:20.572Z," 8.74"
2019-03-09T06:03:16.393Z," 8.71"
2019-03-09T06:08:12.147Z," 8.71"
2019-03-09T06:13:09.486Z," 8.74"
2019-03-09T06:18:06.438Z," 8.76"
2019-03-09T06:23:02.019Z," 8.89"
2019-03-09T06:27:57.494Z," 8.88"
2019-03-09T06:32:53.329Z," 8.94"
2019-03-09T06:37:49.648Z," 9.04"
2019-03-09T06:42:46.459Z," 9.02"
2019-03-09T06:47:42.763Z," 9.11"
2019-03-09T06:52:38.219Z," 9.13"
2019-03-09T06:57:35.078Z," 9.11"
2019-03-09T07:02:30.556Z," 9.08"
2019-03-09T07:07:26.394Z," 9.16"
2019-03-09T07:12:23.050Z," 9.22"
2019-03-09T07:17:18.963Z," 9.34"
2019-03-09T07:22:14.840Z," 9.44"
2019-03-09T07:27:10.520Z," 9.47"
2019-03-09T07:32:06.480Z," 9.58"
2019-03-09T07:37:02.546Z," 9.72"
2019-03-09T07:41:59.611Z," 9.79"
2019-03-09T07:46:56.367Z," 9.80"
2019-03-09T07:51:52.564Z," 9.84"
2019-03-09T07:56:48.323Z," 9.99"
2019-03-09T08:01:44.804Z,10.04
2019-03-09T08:06:40.602Z,10.10
2019-03-09T08:11:36.462Z,10.09
2019-03-09T08:16:35.959Z,10.16
2019-03-09T08:21:31.099Z,10.20
2019-03-09T08:26:27.254Z,10.35
2019-03-09T08:31:24.601Z,10.38
2019-03-09T08:36:21.351Z,10.41
2019-03-09T08:41:16.711Z,10.40
2019-03-09T08:46:13.631Z,10.44
2019-03-09T08:51:10.161Z,10.53
2019-03-09T08:56:06.644Z,10.59
2019-03-09T09:01:02.055Z,10.49
2019-03-09T09:05:58.957Z,10.60
2019-03-09T09:10:54.393Z,10.74
2019-03-09T09:15:50.184Z,10.81
2019-03-09T09:20:45.750Z,10.87
2019-03-09T09:25:41.843Z,10.89
2019-03-09T09:30:38.571Z,10.87
2019-03-09T09:35:34.075Z,11.00
2019-03-09T09:40:29.962Z,11.05
2019-03-09T09:45:26.102Z,11.11
2019-03-09T09:50:22.352Z,11.18
2019-03-09T09:55:18.197Z,11.27
2019-03-09T10:00:13.791Z,11.25
2019-03-09T10:05:09.177Z,11.17
2019-03-09T10:10:05.210Z,11.33
2019-03-09T10:15:01.600Z,11.19
2019-03-09T10:19:57.463Z,11.12
2019-03-09T10:24:53.394Z,11.19
2019-03-09T10:29:49.382Z,11.33
2019-03-09T10:34:46.175Z,11.52
2019-03-09T10:39:42.218Z,11.57
2019-03-09T10:44:39.444Z,11.55
2019-03-09T10:49:36.130Z,11.66
2019-03-09T10:54:35.939Z,11.73
2019-03-09T10:59:31.206Z,11.84
2019-03-09T11:04:27.927Z,11.81
2019-03-09T11:09:23.606Z,12.00
2019-03-09T11:14:19.513Z,12.04
2019-03-09T11:19:15.350Z,11.99
2019-03-09T11:24:11.285Z,12.09
2019-03-09T11:29:07.764Z,12.06
2019-03-09T11:34:03.392Z,12.18
2019-03-09T11:38:59.492Z,12.45
2019-03-09T11:43:56.681Z,12.57
2019-03-09T11:48:53.367Z,12.62
2019-03-09T11:53:48.624Z,12.54
2019-03-09T11:58:44.922Z,12.31
2019-03-09T12:03:40.676Z,12.45
2019-03-09T12:08:36.361Z,12.18
2019-03-09T12:13:31.681Z,12.03
2019-03-09T12:18:28.785Z,12.27
2019-03-09T12:23:24.676Z,12.54
2019-03-09T12:28:24.086Z,12.45
2019-03-09T12:33:18.797Z,12.50
2019-03-09T12:38:15.703Z,12.76
2019-03-09T12:43:11.294Z,12.80
2019-03-09T12:48:07.343Z,12.90
2019-03-09T12:53:03.206Z,12.61
2019-03-09T12:57:59.791Z,12.55
2019-03-09T13:02:55.159Z,12.55
2019-03-09T13:07:50.783Z,12.39
2019-03-09T13:12:46.125Z,12.46
2019-03-09T13:17:43.773Z,12.42
2019-03-09T13:22:39.351Z,12.47
2019-03-09T13:27:35.186Z,12.49
2019-03-09T13:32:30.619Z,12.46
2019-03-09T13:37:26.289Z,12.35
2019-03-09T13:42:21.856Z,12.10
2019-03-09T13:47:17.135Z,11.94
2019-03-09T13:52:14.268Z,11.70
2019-03-09T13:57:09.878Z,11.35
2019-03-09T14:02:05.699Z,11.02
2019-03-09T14:07:02.225Z,10.67
2019-03-09T14:11:58.096Z,10.93
2019-03-09T14:16:53.810Z,11.02
2019-03-09T14:21:49.492Z,10.97
2019-03-09T14:26:45.273Z,11.11
2019-03-09T14:31:41.163Z,11.18
2019-03-09T14:36:36.977Z,11.14
2019-03-09T14:41:32.849Z,11.15
2019-03-09T14:46:28.559Z,11.12
2019-03-09T14:51:25.422Z,11.22
2019-03-09T14:56:21.047Z,11.08
2019-03-09T15:01:16.597Z,11.00
2019-03-09T15:06:12.209Z,10.87
2019-03-09T15:11:07.756Z,10.57
2019-03-09T15:16:03.925Z," 9.06"
2019-03-09T15:20:59.128Z," 8.76"
2019-03-09T15:25:55.516Z," 8.95"
2019-03-09T15:30:50.920Z," 8.97"
2019-03-09T15:35:46.579Z," 8.73"
2019-03-09T15:40:43.148Z," 8.03"
2019-03-09T15:45:39.030Z," 7.95"
2019-03-09T15:50:36.004Z," 7.85"
2019-03-09T15:55:31.342Z," 8.00"
2019-03-09T16:00:27.205Z," 8.20"
2019-03-09T16:05:22.615Z," 8.30"
2019-03-09T16:10:19.262Z," 8.26"
2019-03-09T16:15:14.633Z," 8.20"
2019-03-09T16:20:10.403Z," 8.37"
2019-03-09T16:25:06.193Z," 8.36"
2019-03-09T16:30:01.902Z," 8.41"
2019-03-09T16:34:57.839Z," 8.38"
2019-03-09T16:39:54.417Z," 8.60"
2019-03-09T16:44:50.548Z," 8.63"
2019-03-09T16:49:46.678Z," 8.61"
2019-03-09T16:54:43.365Z," 8.67"
2019-03-09T16:59:38.820Z," 8.70"
2019-03-09T17:04:35.216Z," 8.74"
2019-03-09T17:09:31.042Z," 8.87"
2019-03-09T17:14:26.766Z," 8.66"
2019-03-09T17:19:22.419Z," 8.81"
2019-03-09T17:24:18.235Z," 8.76"
2019-03-09T17:29:14.681Z," 8.78"
2019-03-09T17:34:10.225Z," 8.81"
2019-03-09T17:39:07.023Z," 8.73"
2019-03-09T17:49:02.384Z," 8.79"
2019-03-09T17:53:57.933Z," 8.88"
2019-03-09T17:58:53.798Z," 8.64"
2019-03-09T18:03:49.471Z," 8.61"
2019-03-09T18:08:44.997Z," 8.46"
2019-03-09T18:13:41.375Z," 8.45"
2019-03-09T18:18:36.770Z," 8.33"
2019-03-09T18:23:32.509Z," 8.38"
2019-03-09T18:28:28.997Z," 8.26"
2019-03-09T18:33:25.256Z," 8.18"
2019-03-09T18:38:20.584Z," 8.12"
2019-03-09T18:43:17.252Z," 7.97"
2019-03-09T18:48:13.660Z," 7.87"
2019-03-09T18:53:09.033Z," 7.87"
2019-03-09T18:58:04.821Z," 7.77"
2019-03-09T19:03:00.388Z," 7.72"
2019-03-09T19:07:57.158Z," 7.75"
2019-03-09T19:12:52.575Z," 7.80"
2019-03-09T19:17:49.243Z," 7.73"
2019-03-09T19:22:45.499Z," 7.76"
2019-03-09T19:27:41.008Z," 7.85"
2019-03-09T19:32:36.643Z," 7.77"
2019-03-09T19:37:33.199Z," 7.82"
2019-03-09T19:42:28.468Z," 7.69"
2019-03-09T19:47:24.250Z," 7.70"
2019-03-09T19:52:20.114Z," 7.67"
2019-03-09T19:57:15.874Z," 7.67"
2019-03-09T20:02:12.636Z," 7.60"
2019-03-09T20:07:08.081Z," 7.69"
2019-03-09T20:12:03.974Z," 7.63"
2019-03-09T20:16:59.776Z," 7.60"
2019-03-09T20:21:55.017Z," 7.63"
2019-03-09T20:26:50.906Z," 7.60"
2019-03-09T20:31:47.534Z," 7.45"
2019-03-09T20:36:43.917Z," 7.45"
2019-03-09T20:41:39.407Z," 7.38"
2019-03-09T20:46:41.836Z," 7.50"
2019-03-09T20:51:37.441Z," 7.53"
2019-03-09T20:56:32.511Z," 7.50"
2019-03-09T21:01:28.340Z," 7.67"
2019-03-09T21:06:24.150Z," 7.80"
2019-03-09T21:11:20.947Z," 7.87"
2019-03-09T21:16:18.134Z," 7.98"
2019-03-09T21:21:14.380Z," 7.98"
2019-03-09T21:26:09.907Z," 7.91"
2019-03-09T21:31:05.545Z," 8.09"
2019-03-09T21:36:01.162Z," 8.03"
2019-03-09T21:40:57.062Z," 8.03"
2019-03-09T21:45:52.931Z," 7.91"
2019-03-09T21:50:48.352Z," 8.03"
2019-03-09T21:55:45.464Z," 7.98"
2019-03-09T22:00:40.891Z," 8.10"
2019-03-09T22:05:36.539Z," 8.13"
2019-03-09T22:10:32.260Z," 8.10"
2019-03-09T22:15:28.793Z," 8.19"
2019-03-09T22:20:24.258Z," 8.20"
2019-03-09T22:25:20.528Z," 8.24"
2019-03-09T22:30:16.296Z," 8.30"
2019-03-09T22:35:13.140Z," 8.36"
2019-03-09T22:40:09.005Z," 8.37"
2019-03-09T22:45:05.506Z," 8.36"
2019-03-09T22:50:00.756Z," 8.37"
2019-03-09T22:54:56.416Z," 8.46"
2019-03-09T22:59:51.991Z," 8.41"
2019-03-09T23:04:48.722Z," 8.38"
2019-03-09T23:09:44.513Z," 8.33"
2019-03-09T23:14:41.145Z," 8.31"
2019-03-09T23:19:36.685Z," 8.30"
2019-03-09T23:24:33.309Z," 8.27"
2019-03-09T23:29:28.720Z," 8.33"
2019-03-09T23:34:25.339Z," 8.34"
2019-03-09T23:39:20.521Z," 8.27"
2019-03-09T23:44:16.854Z," 8.31"
2019-03-09T23:49:12.470Z," 8.23"
2019-03-09T23:54:09.106Z," 8.30"
2019-03-09T23:59:04.329Z," 8.24"
